createdAt,value
2018-08-04T00:01:26.663Z,99.90
2018-08-04T00:03:55.284Z,99.90
2018-08-04T00:06:23.598Z,99.90
2018-08-04T00:08:52.137Z,99.90
2018-08-04T00:11:20.481Z,99.90
2018-08-04T00:16:17.391Z,99.90
2018-08-04T00:18:45.676Z,99.90
2018-08-04T00:21:14.727Z,99.90
2018-08-04T00:23:43.284Z,99.90
2018-08-04T00:26:11.823Z,99.90
2018-08-04T00:28:40.158Z,99.90
2018-08-04T00:31:08.435Z,99.90
2018-08-04T00:33:36.891Z,99.90
2018-08-04T00:36:05.507Z,99.90
2018-08-04T00:38:33.776Z,99.90
2018-08-04T00:41:02.912Z,99.90
2018-08-04T00:43:31.958Z,99.90
2018-08-04T00:46:00.231Z,99.90
2018-08-04T00:48:28.526Z,99.90
2018-08-04T00:50:57.255Z,99.90
2018-08-04T00:53:25.867Z,99.90
2018-08-04T00:55:54.490Z,99.90
2018-08-04T00:58:23.781Z,99.90
2018-08-04T01:00:52.271Z,99.90
2018-08-04T01:03:21.042Z,99.90
2018-08-04T01:05:49.604Z,99.90
2018-08-04T01:08:17.871Z,99.90
2018-08-04T01:10:46.779Z,99.90
2018-08-04T01:13:15.088Z,99.90
2018-08-04T01:15:43.398Z,99.90
2018-08-04T01:18:12.098Z,99.90
2018-08-04T01:20:40.692Z,99.90
2018-08-04T01:23:09.312Z,99.90
2018-08-04T01:25:37.983Z,99.90
2018-08-04T01:28:06.611Z,99.90
2018-08-04T01:30:35.187Z,99.90
2018-08-04T01:33:03.961Z,99.90
2018-08-04T01:35:32.722Z,99.90
2018-08-04T01:38:01.179Z,99.90
2018-08-04T01:40:29.923Z,99.90
2018-08-04T01:42:58.875Z,99.90
2018-08-04T01:45:27.700Z,99.90
2018-08-04T01:47:56.612Z,99.90
2018-08-04T01:50:25.229Z,99.90
2018-08-04T01:52:53.747Z,99.90
2018-08-04T01:55:22.295Z,99.90
2018-08-04T01:57:50.807Z,99.90
2018-08-04T02:00:19.416Z,99.90
2018-08-04T02:02:47.693Z,99.90
2018-08-04T02:05:16.649Z,99.90
2018-08-04T02:07:44.961Z,99.90
2018-08-04T02:10:13.710Z,99.90
2018-08-04T02:12:42.011Z,99.90
2018-08-04T02:15:11.077Z,99.90
2018-08-04T02:17:39.343Z,99.90
2018-08-04T02:20:07.678Z,99.90
2018-08-04T02:22:36.304Z,99.90
2018-08-04T02:25:05.323Z,99.90
2018-08-04T02:27:33.632Z,99.90
2018-08-04T02:30:01.911Z,99.90
2018-08-04T02:32:30.170Z,99.90
2018-08-04T02:34:58.803Z,99.90
2018-08-04T02:37:27.114Z,99.90
2018-08-04T02:39:55.667Z,99.90
2018-08-04T02:42:24.348Z,99.90
2018-08-04T02:44:52.739Z,99.90
2018-08-04T02:47:21.364Z,99.90
2018-08-04T02:49:49.809Z,99.90
2018-08-04T02:52:18.590Z,99.90
2018-08-04T02:54:47.484Z,99.90
2018-08-04T02:57:16.167Z,99.90
2018-08-04T02:59:44.744Z,99.90
2018-08-04T03:02:13.319Z,99.90
2018-08-04T03:04:42.316Z,99.90
2018-08-04T03:07:11.264Z,99.90
2018-08-04T03:09:39.534Z,99.90
2018-08-04T03:12:07.964Z,99.90
2018-08-04T03:14:36.844Z,99.90
2018-08-04T03:17:05.679Z,99.90
2018-08-04T03:19:34.255Z,99.90
2018-08-04T03:22:02.804Z,99.90
2018-08-04T03:24:31.384Z,99.90
2018-08-04T03:27:00.373Z,99.90
2018-08-04T03:29:28.723Z,99.90
2018-08-04T03:31:57.502Z,99.90
2018-08-04T03:34:25.800Z,99.90
2018-08-04T03:36:54.843Z,99.90
2018-08-04T03:39:23.632Z,99.90
2018-08-04T03:41:52.589Z,99.90
2018-08-04T03:44:20.874Z,99.90
2018-08-04T03:46:49.448Z,99.90
2018-08-04T03:49:17.821Z,99.90
2018-08-04T03:51:46.457Z,99.90
2018-08-04T03:54:15.001Z,99.90
2018-08-04T03:56:44.071Z,99.90
2018-08-04T03:59:12.340Z,99.90
2018-08-04T04:01:40.953Z,99.90
2018-08-04T04:06:38.313Z,99.90
2018-08-04T04:09:08.571Z,99.90
2018-08-04T04:11:37.208Z,99.90
2018-08-04T04:14:05.816Z,99.90
2018-08-04T04:16:34.205Z,99.90
2018-08-04T04:19:03.196Z,99.90
2018-08-04T04:21:32.182Z,99.90
2018-08-04T04:24:00.850Z,99.90
2018-08-04T04:26:29.297Z,99.90
2018-08-04T04:28:57.738Z,99.90
2018-08-04T04:31:26.028Z,99.90
2018-08-04T04:33:54.328Z,99.90
2018-08-04T04:36:24.483Z,99.90
2018-08-04T04:38:52.763Z,99.90
2018-08-04T04:41:21.147Z,99.90
2018-08-04T04:43:49.440Z,99.90
2018-08-04T04:46:18.059Z,99.90
2018-08-04T04:48:46.560Z,99.90
2018-08-04T04:51:15.154Z,99.90
2018-08-04T04:53:43.575Z,99.90
2018-08-04T04:56:12.779Z,99.90
2018-08-04T04:58:41.062Z,99.90
2018-08-04T05:01:10.292Z,99.90
2018-08-04T05:03:38.598Z,99.90
2018-08-04T05:06:06.926Z,99.90
2018-08-04T05:08:35.319Z,99.90
2018-08-04T05:11:04.273Z,99.90
2018-08-04T05:13:32.851Z,99.90
2018-08-04T05:16:01.487Z,99.90
2018-08-04T05:18:29.968Z,99.90
2018-08-04T05:20:58.255Z,99.90
2018-08-04T05:23:26.940Z,99.90
2018-08-04T05:25:55.327Z,99.90
2018-08-04T05:28:23.943Z,99.90
2018-08-04T05:30:52.627Z,99.90
2018-08-04T05:33:21.315Z,99.90
2018-08-04T05:35:49.608Z,99.90
2018-08-04T05:38:18.317Z,99.90
2018-08-04T05:40:47.309Z,99.90
2018-08-04T05:43:16.177Z,99.90
2018-08-04T05:45:45.335Z,99.90
2018-08-04T05:48:13.655Z,99.90
2018-08-04T05:50:41.949Z,99.90
2018-08-04T05:53:10.437Z,99.90
2018-08-04T05:55:39.112Z,99.90
2018-08-04T05:58:08.035Z,99.90
2018-08-04T06:00:36.711Z,99.90
2018-08-04T06:03:05.039Z,99.90
2018-08-04T06:05:33.624Z,99.90
2018-08-04T06:10:30.267Z,99.90
2018-08-04T06:12:58.824Z,99.90
2018-08-04T06:15:27.773Z,99.90
2018-08-04T06:17:56.218Z,99.90
2018-08-04T06:20:25.636Z,99.90
2018-08-04T06:22:54.225Z,99.90
2018-08-04T06:25:23.496Z,99.90
2018-08-04T06:27:51.966Z,99.90
2018-08-04T06:32:48.634Z,99.90
2018-08-04T06:35:17.038Z,99.90
2018-08-04T06:37:45.886Z,99.90
2018-08-04T06:40:14.999Z,99.90
2018-08-04T06:42:43.435Z,99.90
2018-08-04T06:45:12.108Z,99.90
2018-08-04T06:47:40.644Z,99.90
2018-08-04T06:50:09.328Z,99.90
2018-08-04T06:52:38.337Z,99.90
2018-08-04T06:55:07.035Z,99.90
2018-08-04T06:57:35.448Z,99.90
2018-08-04T07:00:03.813Z,99.90
2018-08-04T07:02:32.136Z,99.90
2018-08-04T07:05:00.951Z,99.90
2018-08-04T07:07:30.064Z,99.90
2018-08-04T07:09:58.348Z,99.90
2018-08-04T07:12:26.631Z,99.90
2018-08-04T07:14:55.157Z,99.90
2018-08-04T07:17:23.607Z,99.90
2018-08-04T07:19:53.251Z,99.90
2018-08-04T07:22:22.119Z,99.90
2018-08-04T07:24:50.558Z,99.90
2018-08-04T07:27:20.255Z,99.90
2018-08-04T07:29:48.844Z,99.90
2018-08-04T07:32:17.823Z,99.90
2018-08-04T07:34:46.726Z,99.90
2018-08-04T07:37:15.236Z,99.20
2018-08-04T07:39:43.899Z,98.20
2018-08-04T07:42:12.550Z,99.00
2018-08-04T07:44:41.082Z,97.80
2018-08-04T07:47:09.420Z,97.80
2018-08-04T07:49:37.782Z,97.50
2018-08-04T07:52:06.958Z,95.20
2018-08-04T07:54:35.268Z,94.00
2018-08-04T07:57:03.752Z,93.70
2018-08-04T07:59:32.192Z,93.90
2018-08-04T08:02:01.009Z,93.20
2018-08-04T08:04:29.306Z,95.30
2018-08-04T08:06:57.677Z,94.60
2018-08-04T08:09:26.059Z,92.00
2018-08-04T08:11:54.370Z,91.10
2018-08-04T08:16:50.958Z,91.00
2018-08-04T08:19:19.252Z,91.50
2018-08-04T08:21:48.387Z,92.40
2018-08-04T08:24:16.939Z,91.80
2018-08-04T08:26:46.190Z,92.00
2018-08-04T08:31:39.392Z,90.60
2018-08-04T08:34:09.652Z,89.10
2018-08-04T08:36:38.883Z,88.30
2018-08-04T08:39:08.328Z,83.20
2018-08-04T08:41:36.963Z,87.80
2018-08-04T08:44:06.335Z,86.20
2018-08-04T08:46:34.655Z,88.00
2018-08-04T08:49:02.916Z,88.70
2018-08-04T08:51:32.664Z,90.80
2018-08-04T08:54:01.366Z,88.80
2018-08-04T08:56:29.813Z,88.90
2018-08-04T08:58:58.199Z,90.10
2018-08-04T09:01:26.628Z,90.80
2018-08-04T09:03:55.035Z,89.80
2018-08-04T09:06:24.295Z,83.60
2018-08-04T09:08:53.111Z,86.40
2018-08-04T09:11:22.220Z,87.90
2018-08-04T09:13:50.615Z,85.60
2018-08-04T09:16:21.602Z,83.90
2018-08-04T09:18:50.062Z,80.30
2018-08-04T09:21:19.571Z,75.40
2018-08-04T09:23:48.758Z,76.50
2018-08-04T09:26:17.418Z,78.80
2018-08-04T09:31:14.409Z,80.10
2018-08-04T09:33:43.006Z,72.90
2018-08-04T09:36:11.335Z,69.80
2018-08-04T09:38:39.920Z,73.60
2018-08-04T09:43:36.866Z,67.00
2018-08-04T09:46:05.747Z,66.10
2018-08-04T09:48:34.648Z,64.60
2018-08-04T09:51:02.931Z,65.50
2018-08-04T09:53:31.264Z,60.50
2018-08-04T09:55:59.548Z,62.00
2018-08-04T09:58:28.040Z,59.70
2018-08-04T10:01:01.822Z,61.40
2018-08-04T10:03:30.415Z,58.70
2018-08-04T10:05:59.036Z,59.10
2018-08-04T10:08:27.323Z,60.00
2018-08-04T10:10:55.813Z,60.70
2018-08-04T10:13:24.396Z,55.90
2018-08-04T10:15:53.080Z,52.80
2018-08-04T10:18:21.655Z,52.70
2018-08-04T10:20:49.959Z,57.60
2018-08-04T10:23:18.309Z,53.10
2018-08-04T10:25:47.990Z,50.90
2018-08-04T10:28:16.468Z,51.70
2018-08-04T10:30:45.381Z,53.10
2018-08-04T10:33:14.474Z,54.80
2018-08-04T10:35:42.941Z,56.30
2018-08-04T10:38:11.423Z,57.90
2018-08-04T10:40:40.052Z,52.10
2018-08-04T10:43:09.148Z,46.50
2018-08-04T10:45:37.437Z,51.20
2018-08-04T10:48:06.189Z,50.10
2018-08-04T10:50:34.447Z,51.90
2018-08-04T10:53:03.092Z,50.80
2018-08-04T10:58:00.914Z,49.80
2018-08-04T11:00:29.212Z,51.60
2018-08-04T11:02:57.776Z,48.90
2018-08-04T11:05:27.019Z,51.20
2018-08-04T11:07:55.599Z,50.40
2018-08-04T11:10:24.167Z,46.50
2018-08-04T11:12:52.802Z,48.60
2018-08-04T11:15:21.372Z,47.20
2018-08-04T11:17:49.752Z,45.90
2018-08-04T11:20:18.474Z,43.90
2018-08-04T11:22:47.428Z,47.10
2018-08-04T11:25:15.767Z,44.10
2018-08-04T11:27:44.416Z,44.00
2018-08-04T11:30:13.128Z,46.70
2018-08-04T11:32:41.416Z,45.00
2018-08-04T11:35:10.077Z,45.80
2018-08-04T11:37:38.391Z,45.00
2018-08-04T11:40:07.137Z,42.20
2018-08-04T11:42:35.423Z,43.90
2018-08-04T11:45:04.487Z,41.00
2018-08-04T11:47:33.254Z,41.20
2018-08-04T11:50:02.207Z,40.80
2018-08-04T11:52:31.127Z,41.20
2018-08-04T11:54:59.417Z,40.50
2018-08-04T11:57:27.692Z,37.10
2018-08-04T11:59:56.041Z,38.60
2018-08-04T12:02:24.440Z,39.70
2018-08-04T12:04:52.785Z,39.60
2018-08-04T12:07:21.423Z,39.30
2018-08-04T12:09:49.927Z,37.70
2018-08-04T12:12:18.575Z,41.80
2018-08-04T12:14:46.986Z,36.90
2018-08-04T12:17:15.900Z,37.30
2018-08-04T12:19:44.164Z,36.80
2018-08-04T12:22:12.460Z,36.10
2018-08-04T12:24:41.017Z,35.00
2018-08-04T12:27:09.632Z,37.00
2018-08-04T12:29:38.776Z,37.70
2018-08-04T12:32:07.508Z,34.60
2018-08-04T12:34:35.789Z,35.40
2018-08-04T12:37:05.185Z,37.00
2018-08-04T12:39:33.474Z,38.30
2018-08-04T12:42:02.191Z,35.90
2018-08-04T12:44:30.754Z,36.70
2018-08-04T12:46:59.456Z,33.10
2018-08-04T12:49:28.108Z,35.10
2018-08-04T12:51:57.176Z,38.90
2018-08-04T12:54:26.263Z,35.20
2018-08-04T12:56:54.967Z,38.10
2018-08-04T12:59:23.309Z,36.20
2018-08-04T13:01:52.092Z,34.70
2018-08-04T13:04:21.036Z,35.50
2018-08-04T13:06:49.568Z,35.70
2018-08-04T13:09:17.900Z,35.00
2018-08-04T13:11:46.243Z,38.20
2018-08-04T13:14:15.095Z,36.50
2018-08-04T13:16:44.384Z,36.00
2018-08-04T13:19:13.260Z,37.90
2018-08-04T13:21:42.232Z,36.30
2018-08-04T13:24:11.070Z,34.60
2018-08-04T13:26:39.626Z,36.70
2018-08-04T13:29:08.219Z,37.30
2018-08-04T15:03:55.034Z,35.10
2018-08-04T15:06:24.691Z,34.00
2018-08-04T15:08:53.319Z,36.20
2018-08-04T15:11:22.255Z,37.40
2018-08-04T15:13:50.666Z,36.50
2018-08-04T15:16:19.548Z,37.30
2018-08-04T15:18:48.083Z,41.10
2018-08-04T15:21:16.953Z,40.10
2018-08-04T15:23:45.803Z,38.70
2018-08-04T15:26:14.345Z,39.80
2018-08-04T15:28:43.258Z,37.60
2018-08-04T15:31:12.100Z,38.00
2018-08-04T15:33:40.673Z,37.80
2018-08-04T15:36:09.232Z,39.40
2018-08-04T15:38:38.115Z,39.50
2018-08-04T15:41:07.104Z,40.50
2018-08-04T15:43:35.396Z,41.10
2018-08-04T15:46:03.704Z,39.90
2018-08-04T15:48:31.983Z,40.40
2018-08-04T15:51:00.532Z,39.10
2018-08-04T15:53:28.841Z,40.80
2018-08-04T15:55:57.391Z,40.60
2018-08-04T15:58:25.952Z,41.00
2018-08-04T16:00:54.496Z,41.00
2018-08-04T16:03:23.228Z,41.30
2018-08-04T16:05:52.040Z,40.40
2018-08-04T16:08:20.765Z,39.40
2018-08-04T16:10:49.349Z,40.00
2018-08-04T16:13:21.197Z,39.50
2018-08-04T16:15:50.176Z,38.80
2018-08-04T16:18:18.676Z,42.60
2018-08-04T16:20:47.433Z,44.20
2018-08-04T16:23:16.507Z,45.70
2018-08-04T16:25:45.143Z,44.60
2018-08-04T16:28:14.079Z,46.80
2018-08-04T16:30:42.768Z,46.80
2018-08-04T16:33:11.379Z,48.20
2018-08-04T16:35:39.654Z,47.20
2018-08-04T16:38:08.364Z,49.50
2018-08-04T16:40:37.093Z,47.30
2018-08-04T16:43:05.727Z,47.50
2018-08-04T16:45:34.379Z,49.40
2018-08-04T16:50:31.244Z,49.80
2018-08-04T16:53:00.140Z,47.90
2018-08-04T16:55:28.990Z,48.80
2018-08-04T16:57:57.755Z,52.50
2018-08-04T17:00:26.040Z,51.10
2018-08-04T17:03:00.655Z,49.80
2018-08-04T17:05:28.970Z,51.20
2018-08-04T17:07:57.257Z,55.90
2018-08-04T17:10:25.820Z,57.80
2018-08-04T17:12:54.275Z,59.60
2018-08-04T17:15:22.808Z,61.10
2018-08-04T17:17:51.349Z,61.70
2018-08-04T17:20:19.855Z,62.80
2018-08-04T17:22:48.134Z,63.60
2018-08-04T17:25:16.409Z,65.70
2018-08-04T17:27:44.995Z,66.00
2018-08-04T17:30:13.995Z,66.60
2018-08-04T17:32:42.281Z,68.10
2018-08-04T17:35:10.668Z,68.30
2018-08-04T17:37:38.984Z,68.70
2018-08-04T17:40:08.559Z,69.80
2018-08-04T17:42:37.178Z,69.90
2018-08-04T17:47:34.203Z,69.60
2018-08-04T17:50:04.058Z,69.80
2018-08-04T17:52:32.544Z,70.60
2018-08-04T17:58:21.600Z,71.50
2018-08-04T18:00:51.500Z,71.60
2018-08-04T18:03:19.809Z,73.80
2018-08-04T18:05:48.323Z,73.10
2018-08-04T18:08:16.951Z,74.10
2018-08-04T18:10:45.548Z,74.20
2018-08-04T18:13:14.228Z,74.10
2018-08-04T18:15:42.562Z,75.70
2018-08-04T18:18:10.888Z,73.70
2018-08-04T18:20:39.209Z,73.20
2018-08-04T18:23:08.053Z,72.70
2018-08-04T18:25:36.836Z,74.30
2018-08-04T18:28:06.870Z,73.30
2018-08-04T18:30:37.137Z,73.80
2018-08-04T18:33:08.074Z,74.00
2018-08-04T18:35:37.566Z,73.90
2018-08-04T18:38:07.934Z,74.50
2018-08-04T18:40:38.618Z,74.20
2018-08-04T18:44:14.342Z,74.30
2018-08-04T18:46:42.667Z,74.90
2018-08-04T18:49:11.789Z,76.60
2018-08-04T18:51:40.493Z,76.20
2018-08-04T18:54:09.667Z,76.10
2018-08-04T18:56:39.926Z,76.40
2018-08-04T18:59:10.497Z,76.50
2018-08-04T19:01:40.840Z,77.20
2018-08-04T19:04:11.107Z,80.30
2018-08-04T19:06:40.893Z,80.90
2018-08-04T19:09:11.681Z,82.40
2018-08-04T19:11:41.708Z,84.10
2018-08-04T19:14:12.262Z,83.60
2018-08-04T19:19:14.192Z,87.30
2018-08-04T19:21:46.825Z,90.50
2018-08-04T19:24:17.476Z,90.80
2018-08-04T19:26:47.732Z,92.00
2018-08-04T19:29:17.757Z,92.90
2018-08-04T19:31:47.800Z,92.20
2018-08-04T19:34:17.729Z,93.10
2018-08-04T19:36:48.637Z,94.70
2018-08-04T19:39:21.047Z,96.00
2018-08-04T19:41:51.207Z,94.70
2018-08-04T19:44:20.242Z,95.10
2018-08-04T19:46:52.216Z,96.80
2018-08-04T19:49:22.411Z,97.50
2018-08-04T19:51:52.056Z,97.30
2018-08-04T19:54:23.170Z,98.50
2018-08-04T20:03:38.967Z,99.70
2018-08-04T20:06:07.932Z,99.90
2018-08-04T20:11:06.037Z,99.90
2018-08-04T20:13:35.021Z,99.90
2018-08-04T20:16:03.633Z,99.90
2018-08-04T20:18:32.329Z,99.90
2018-08-04T20:21:01.330Z,99.90
2018-08-04T20:23:30.458Z,99.90
2018-08-04T20:25:59.656Z,99.90
2018-08-04T20:28:28.386Z,99.90
2018-08-04T20:30:58.749Z,99.90
2018-08-04T20:33:28.744Z,99.90
2018-08-04T20:35:59.906Z,99.90
2018-08-04T20:38:32.769Z,99.90
2018-08-04T20:41:02.122Z,99.90
2018-08-04T20:43:31.287Z,99.90
2018-08-04T20:46:01.204Z,99.90
2018-08-04T20:48:31.385Z,99.90
2018-08-04T20:51:01.219Z,99.90
2018-08-04T20:56:10.723Z,99.90
2018-08-04T20:58:39.016Z,99.90
2018-08-04T21:01:18.904Z,99.90
2018-08-04T21:03:47.448Z,99.90
2018-08-04T21:06:16.177Z,99.90
2018-08-04T21:08:44.810Z,99.90
2018-08-04T21:11:13.691Z,99.90
2018-08-04T21:13:41.985Z,99.90
2018-08-04T21:16:10.470Z,99.90
2018-08-04T21:18:38.798Z,99.90
2018-08-04T21:21:07.714Z,99.90
2018-08-04T21:23:36.121Z,99.90
2018-08-04T21:26:04.712Z,99.90
2018-08-04T21:28:33.647Z,99.90
2018-08-04T21:31:01.980Z,99.90
2018-08-04T21:33:30.609Z,99.90
2018-08-04T21:35:59.091Z,99.90
2018-08-04T21:38:27.428Z,99.90
2018-08-04T21:40:55.788Z,99.90
2018-08-04T21:43:24.056Z,99.90
2018-08-04T21:45:52.377Z,99.90
2018-08-04T21:48:20.936Z,99.90
2018-08-04T21:50:49.201Z,99.90
2018-08-04T21:53:17.633Z,99.90
2018-08-04T21:55:46.232Z,99.90
2018-08-04T21:58:14.534Z,99.90
2018-08-04T22:00:48.717Z,99.90
2018-08-04T22:03:17.391Z,99.90
2018-08-04T22:05:45.731Z,99.90
2018-08-04T22:08:25.701Z,99.90
2018-08-04T22:10:54.432Z,99.90
2018-08-04T22:13:22.692Z,99.90
2018-08-04T22:15:51.362Z,99.90
2018-08-04T22:18:19.921Z,99.90
2018-08-04T22:20:48.471Z,99.90
2018-08-04T22:23:17.149Z,99.90
2018-08-04T22:25:45.403Z,99.90
2018-08-04T22:28:14.321Z,99.90
2018-08-04T22:30:43.316Z,99.90
2018-08-04T22:33:12.054Z,99.90
2018-08-04T22:35:40.670Z,99.90
2018-08-04T22:38:09.742Z,99.90
2018-08-04T22:40:38.047Z,99.90
2018-08-04T22:43:06.692Z,99.90
2018-08-04T22:45:57.259Z,99.90
2018-08-04T22:48:26.555Z,99.90
2018-08-04T22:50:54.923Z,99.90
2018-08-04T22:53:23.258Z,99.90
2018-08-04T22:55:52.206Z,99.90
2018-08-04T22:58:20.872Z,99.90
2018-08-04T23:00:49.811Z,99.90
2018-08-04T23:03:18.705Z,99.90
2018-08-04T23:05:47.372Z,99.90
2018-08-04T23:08:16.007Z,99.90
2018-08-04T23:10:45.105Z,99.90
2018-08-04T23:13:14.670Z,99.90
2018-08-04T23:15:43.251Z,99.90
2018-08-04T23:18:12.101Z,99.90
2018-08-04T23:20:40.394Z,99.90
2018-08-04T23:23:09.879Z,99.90
2018-08-04T23:25:39.063Z,99.90
2018-08-04T23:28:08.008Z,99.90
2018-08-04T23:30:36.672Z,99.90
2018-08-04T23:33:05.033Z,99.90
2018-08-04T23:35:33.363Z,99.90
2018-08-04T23:38:02.287Z,99.90
2018-08-04T23:40:30.579Z,99.90
2018-08-04T23:42:59.124Z,99.90
2018-08-04T23:45:27.421Z,99.90
2018-08-04T23:47:55.718Z,99.90
2018-08-04T23:50:24.061Z,99.90
2018-08-04T23:52:52.903Z,99.90
2018-08-04T23:55:21.799Z,99.90
2018-08-04T23:57:50.355Z,99.90
